createdAt,value
2018-05-31T00:00:33.971Z,95448.43
2018-05-31T00:03:02.247Z,95446.55
2018-05-31T00:05:30.547Z,95448.53
2018-05-31T00:07:58.845Z,95450.26
2018-05-31T00:10:27.135Z,95449.27
2018-05-31T00:12:55.444Z,95444.31
2018-05-31T00:15:23.799Z,95439.53
2018-05-31T00:17:52.090Z,95447.22
2018-05-31T00:20:20.445Z,95459.55
2018-05-31T00:22:48.740Z,95456.53
2018-05-31T00:25:17.282Z,95456.52
2018-05-31T00:27:45.580Z,95446.45
2018-05-31T00:30:13.874Z,95450.40
2018-05-31T00:32:42.160Z,95457.77
2018-05-31T00:35:11.243Z,95454.94
2018-05-31T00:37:39.530Z,95454.33
2018-05-31T00:40:07.830Z,95455.53
2018-05-31T00:42:36.112Z,95455.14
2018-05-31T00:45:05.214Z,95448.28
2018-05-31T00:47:33.527Z,95451.63
2018-05-31T00:50:01.821Z,95449.31
2018-05-31T00:52:30.131Z,95443.64
2018-05-31T00:54:58.402Z,95438.94
2018-05-31T00:57:26.690Z,95436.37
2018-05-31T00:59:54.989Z,95430.72
2018-05-31T01:02:24.030Z,95425.63
2018-05-31T01:04:52.439Z,95424.02
2018-05-31T01:07:20.729Z,95430.47
2018-05-31T01:09:49.030Z,95433.38
2018-05-31T01:12:17.542Z,95437.67
2018-05-31T01:14:45.840Z,95434.55
2018-05-31T01:17:14.110Z,95433.27
2018-05-31T01:19:49.123Z,95431.06
2018-05-31T01:22:17.418Z,95428.90
2018-05-31T01:24:45.704Z,95433.20
2018-05-31T01:27:13.998Z,95436.72
2018-05-31T01:29:42.314Z,95434.66
2018-05-31T01:32:10.612Z,95430.66
2018-05-31T01:34:39.274Z,95433.05
2018-05-31T01:37:07.556Z,95437.27
2018-05-31T01:39:35.831Z,95440.31
2018-05-31T01:42:04.126Z,95433.78
2018-05-31T01:44:32.395Z,95434.84
2018-05-31T01:47:00.693Z,95435.87
2018-05-31T01:49:29.019Z,95444.86
2018-05-31T01:51:58.034Z,95443.39
2018-05-31T01:54:26.490Z,95435.17
2018-05-31T01:56:54.774Z,95429.81
2018-05-31T01:59:23.078Z,95428.31
2018-05-31T02:01:51.386Z,95427.82
2018-05-31T02:04:19.715Z,95427.64
2018-05-31T02:06:47.997Z,95433.94
2018-05-31T02:09:17.076Z,95434.47
2018-05-31T02:11:45.359Z,95432.33
2018-05-31T02:14:13.801Z,95435.70
2018-05-31T02:16:42.194Z,95431.09
2018-05-31T02:19:10.485Z,95430.14
2018-05-31T02:21:38.778Z,95427.09
2018-05-31T02:24:07.082Z,95425.50
2018-05-31T02:26:35.397Z,95431.81
2018-05-31T02:29:03.683Z,95422.06
2018-05-31T02:31:31.959Z,95430.05
2018-05-31T02:34:00.256Z,95433.70
2018-05-31T02:36:28.540Z,95426.20
2018-05-31T02:38:56.806Z,95428.34
2018-05-31T02:41:25.089Z,95431.84
2018-05-31T02:43:53.372Z,95433.20
2018-05-31T02:46:21.649Z,95430.06
2018-05-31T02:48:49.922Z,95433.72
2018-05-31T02:51:19.010Z,95432.67
2018-05-31T02:53:47.344Z,95428.06
2018-05-31T02:56:15.643Z,95435.38
2018-05-31T02:58:43.919Z,95436.73
2018-05-31T03:01:12.279Z,95439.12
2018-05-31T03:03:40.594Z,95444.81
2018-05-31T03:06:08.871Z,95451.45
2018-05-31T03:08:37.170Z,95448.78
2018-05-31T03:11:05.462Z,95441.14
2018-05-31T03:13:33.746Z,95442.41
2018-05-31T03:16:02.053Z,95446.86
2018-05-31T03:18:30.334Z,95438.77
2018-05-31T03:20:58.899Z,95440.73
2018-05-31T03:23:27.183Z,95438.39
2018-05-31T03:25:56.238Z,95435.87
2018-05-31T03:28:24.672Z,95438.60
2018-05-31T03:30:53.733Z,95443.35
2018-05-31T03:33:22.016Z,95433.19
2018-05-31T03:35:50.315Z,95436.31
2018-05-31T03:38:18.590Z,95434.08
2018-05-31T03:40:46.872Z,95433.06
2018-05-31T03:43:15.147Z,95434.48
2018-05-31T03:45:43.607Z,95436.17
2018-05-31T03:48:12.659Z,95443.01
2018-05-31T03:50:41.088Z,95439.77
2018-05-31T03:53:09.369Z,95428.97
2018-05-31T03:55:37.933Z,95428.99
2018-05-31T03:58:06.229Z,95430.59
2018-05-31T04:00:34.506Z,95427.58
2018-05-31T04:03:02.809Z,95428.81
2018-05-31T04:05:31.113Z,95429.09
2018-05-31T04:07:59.429Z,95421.19
2018-05-31T04:10:28.508Z,95423.02
2018-05-31T04:12:56.848Z,95419.13
2018-05-31T04:15:25.093Z,95423.97
2018-05-31T04:17:53.383Z,95418.57
2018-05-31T04:20:21.672Z,95420.22
2018-05-31T04:22:50.536Z,95411.39
2018-05-31T04:25:19.049Z,95414.59
2018-05-31T04:27:47.370Z,95414.89
2018-05-31T04:30:16.423Z,95418.55
2018-05-31T04:32:45.573Z,95421.11
2018-05-31T04:35:13.878Z,95422.54
2018-05-31T04:37:42.958Z,95425.86
2018-05-31T04:40:11.233Z,95423.31
2018-05-31T04:42:39.524Z,95422.93
2018-05-31T04:45:07.803Z,95424.30
2018-05-31T04:47:36.080Z,95426.17
2018-05-31T04:50:04.358Z,95421.80
2018-05-31T04:52:32.644Z,95425.11
2018-05-31T04:55:00.941Z,95429.66
2018-05-31T04:57:29.251Z,95425.84
2018-05-31T04:59:57.561Z,95428.46
2018-05-31T05:02:26.110Z,95429.83
2018-05-31T05:04:54.427Z,95428.28
2018-05-31T05:07:22.712Z,95425.08
2018-05-31T05:09:51.027Z,95430.68
2018-05-31T05:12:20.344Z,95429.66
2018-05-31T05:14:49.415Z,95424.09
2018-05-31T05:17:17.702Z,95421.70
2018-05-31T05:19:46.005Z,95429.64
2018-05-31T05:22:14.286Z,95431.30
2018-05-31T05:24:42.568Z,95431.78
2018-05-31T05:27:10.871Z,95433.80
2018-05-31T05:29:39.194Z,95438.97
2018-05-31T05:32:08.235Z,95440.91
2018-05-31T05:34:36.522Z,95447.30
2018-05-31T05:37:04.831Z,95444.19
2018-05-31T05:39:33.142Z,95446.52
2018-05-31T05:42:01.415Z,95451.58
2018-05-31T05:44:29.727Z,95451.91
2018-05-31T05:46:58.132Z,95457.64
2018-05-31T05:49:27.200Z,95460.42
2018-05-31T05:51:55.794Z,95458.70
2018-05-31T05:56:45.058Z,95468.02
2018-05-31T05:59:13.324Z,95478.41
2018-05-31T06:01:42.339Z,95481.93
2018-05-31T06:04:10.580Z,95480.79
2018-05-31T06:06:38.807Z,95489.05
2018-05-31T06:09:07.058Z,95489.27
2018-05-31T06:11:35.319Z,95491.02
2018-05-31T06:14:03.565Z,95494.15
2018-05-31T06:16:31.806Z,95495.48
2018-05-31T06:19:00.050Z,95503.46
2018-05-31T06:21:29.053Z,95501.09
2018-05-31T06:23:57.285Z,95494.95
2018-05-31T06:26:25.584Z,95493.25
2018-05-31T06:28:53.775Z,95502.41
2018-05-31T06:31:22.014Z,95505.39
2018-05-31T06:33:50.253Z,95506.67
2018-05-31T06:36:18.501Z,95500.63
2018-05-31T06:38:46.750Z,95503.20
2018-05-31T06:41:15.758Z,95505.89
2018-05-31T06:43:44.762Z,95502.28
2018-05-31T06:46:13.003Z,95502.52
2018-05-31T06:48:41.234Z,95497.49
2018-05-31T06:51:09.685Z,95495.44
2018-05-31T06:53:38.682Z,95497.06
2018-05-31T06:56:06.917Z,95495.69
2018-05-31T06:58:35.169Z,95499.73
2018-05-31T07:01:03.397Z,95497.97
2018-05-31T07:03:32.406Z,95497.20
2018-05-31T07:06:00.653Z,95500.20
2018-05-31T07:08:29.656Z,95499.75
2018-05-31T07:10:58.675Z,95492.72
2018-05-31T07:13:26.909Z,95500.66
2018-05-31T07:15:55.188Z,95492.77
2018-05-31T07:18:23.395Z,95499.84
2018-05-31T07:20:51.627Z,95494.23
2018-05-31T07:23:19.891Z,95494.48
2018-05-31T07:25:48.134Z,95492.48
2018-05-31T07:28:16.370Z,95493.41
2018-05-31T07:30:45.382Z,95494.21
2018-05-31T07:33:13.633Z,95494.98
2018-05-31T07:35:42.631Z,95489.48
2018-05-31T07:38:11.626Z,95486.42
2018-05-31T07:40:40.634Z,95496.79
2018-05-31T07:43:08.874Z,95491.84
2018-05-31T07:45:37.134Z,95492.25
2018-05-31T07:48:05.593Z,95496.50
2018-05-31T07:50:33.817Z,95485.60
2018-05-31T07:53:02.841Z,95486.20
2018-05-31T07:55:31.212Z,95486.64
2018-05-31T07:57:59.472Z,95495.22
2018-05-31T08:00:27.686Z,95491.98
2018-05-31T08:02:55.938Z,95493.29
2018-05-31T08:05:24.170Z,95496.73
2018-05-31T08:07:52.434Z,95496.70
2018-05-31T08:10:20.680Z,95504.98
2018-05-31T08:12:48.916Z,95502.81
2018-05-31T08:15:17.160Z,95508.25
2018-05-31T08:17:45.400Z,95501.40
2018-05-31T08:20:13.636Z,95493.48
2018-05-31T08:22:41.881Z,95507.70
2018-05-31T08:25:10.123Z,95500.59
2018-05-31T08:27:38.370Z,95493.06
2018-05-31T08:30:07.373Z,95499.00
2018-05-31T08:32:36.414Z,95495.03
2018-05-31T08:35:04.650Z,95494.86
2018-05-31T08:37:33.658Z,95496.13
2018-05-31T08:40:01.946Z,95498.91
2018-05-31T08:42:30.186Z,95495.34
2018-05-31T08:44:59.190Z,95491.56
2018-05-31T08:47:28.208Z,95495.02
2018-05-31T08:49:56.466Z,95492.64
2018-05-31T08:52:24.706Z,95490.20
2018-05-31T08:54:52.953Z,95490.28
2018-05-31T08:57:21.228Z,95491.41
2018-05-31T08:59:49.446Z,95496.80
2018-05-31T09:02:18.462Z,95489.89
2018-05-31T09:04:46.708Z,95493.70
2018-05-31T09:07:15.726Z,95486.09
2018-05-31T09:09:43.978Z,95490.92
2018-05-31T09:12:12.990Z,95486.27
2018-05-31T09:14:42.006Z,95488.93
2018-05-31T09:17:10.466Z,95490.61
2018-05-31T09:19:38.706Z,95490.61
2018-05-31T09:22:06.949Z,95495.12
2018-05-31T09:24:35.215Z,95494.63
2018-05-31T09:27:03.445Z,95488.40
2018-05-31T09:29:31.700Z,95492.38
2018-05-31T09:31:59.942Z,95490.00
2018-05-31T09:34:28.246Z,95488.35
2018-05-31T09:36:56.609Z,95490.28
2018-05-31T09:39:24.994Z,95488.25
2018-05-31T09:41:53.255Z,95483.83
2018-05-31T09:44:21.527Z,95488.87
2018-05-31T09:46:49.798Z,95483.75
2018-05-31T09:49:18.033Z,95492.11
2018-05-31T09:51:47.175Z,95494.89
2018-05-31T09:54:15.438Z,95486.30
2018-05-31T09:56:43.686Z,95485.34
2018-05-31T09:59:12.718Z,95482.59
2018-05-31T10:01:40.961Z,95483.24
2018-05-31T10:04:09.991Z,95486.55
2018-05-31T10:06:38.224Z,95477.45
2018-05-31T10:09:07.241Z,95476.48
2018-05-31T10:11:35.826Z,95479.66
2018-05-31T10:14:04.062Z,95474.12
2018-05-31T10:16:32.298Z,95478.73
2018-05-31T10:19:00.551Z,95475.59
2018-05-31T10:21:28.801Z,95473.88
2018-05-31T10:23:57.834Z,95477.62
2018-05-31T10:26:26.090Z,95480.84
2018-05-31T10:28:54.342Z,95479.87
2018-05-31T10:31:22.573Z,95477.45
2018-05-31T10:33:50.835Z,95476.73
2018-05-31T10:36:19.065Z,95467.47
2018-05-31T10:38:47.476Z,95477.77
2018-05-31T10:41:15.758Z,95476.70
2018-05-31T10:43:44.709Z,95466.73
2018-05-31T10:46:13.736Z,95462.67
2018-05-31T10:48:41.991Z,95466.14
2018-05-31T10:51:10.234Z,95464.39
2018-05-31T10:53:38.474Z,95469.48
2018-05-31T10:56:06.742Z,95466.45
2018-05-31T10:58:34.995Z,95461.19
2018-05-31T11:01:04.010Z,95457.42
2018-05-31T11:03:32.245Z,95465.10
2018-05-31T11:06:00.659Z,95464.50
2018-05-31T11:08:28.898Z,95458.76
2018-05-31T11:10:57.133Z,95460.76
2018-05-31T11:13:25.391Z,95457.63
2018-05-31T11:15:53.635Z,95455.84
2018-05-31T11:18:21.873Z,95455.81
2018-05-31T11:20:50.131Z,95456.13
2018-05-31T11:23:18.403Z,95457.87
2018-05-31T11:25:46.961Z,95458.37
2018-05-31T11:28:15.199Z,95453.11
2018-05-31T11:30:43.437Z,95444.73
2018-05-31T11:33:11.710Z,95450.05
2018-05-31T11:35:39.973Z,95448.22
2018-05-31T11:38:08.233Z,95439.93
2018-05-31T11:40:37.233Z,95446.84
2018-05-31T11:43:06.234Z,95440.27
2018-05-31T11:45:34.486Z,95440.59
2018-05-31T11:48:02.992Z,95433.16
2018-05-31T11:50:32.008Z,95431.71
2018-05-31T11:53:00.229Z,95430.53
2018-05-31T11:55:28.480Z,95424.88
2018-05-31T11:57:56.723Z,95414.19
2018-05-31T12:00:24.970Z,95407.86
2018-05-31T12:02:54.182Z,95395.42
2018-05-31T12:05:22.418Z,95394.62
2018-05-31T12:07:50.655Z,95389.07
2018-05-31T12:10:18.905Z,95395.13
2018-05-31T12:12:47.149Z,95392.50
2018-05-31T12:15:15.391Z,95390.32
2018-05-31T12:17:43.837Z,95386.75
2018-05-31T12:20:12.083Z,95379.97
2018-05-31T12:22:40.326Z,95377.30
2018-05-31T12:25:08.562Z,95384.28
2018-05-31T12:27:37.570Z,95384.12
2018-05-31T12:30:05.810Z,95378.05
2018-05-31T12:32:34.923Z,95380.53
2018-05-31T12:35:03.926Z,95380.84
2018-05-31T12:37:32.181Z,95379.12
2018-05-31T12:40:01.194Z,95377.47
2018-05-31T12:42:29.426Z,95374.08
2018-05-31T12:44:57.673Z,95375.14
2018-05-31T12:47:26.118Z,95370.62
2018-05-31T12:49:54.393Z,95368.24
2018-05-31T12:52:22.625Z,95364.57
2018-05-31T12:54:50.881Z,95364.62
2018-05-31T12:57:19.121Z,95362.25
2018-05-31T12:59:47.597Z,95356.21
2018-05-31T13:02:16.603Z,95356.56
2018-05-31T13:04:44.838Z,95347.98
2018-05-31T13:07:13.089Z,95349.78
2018-05-31T13:09:41.330Z,95344.77
2018-05-31T13:12:09.566Z,95344.87
2018-05-31T13:14:37.810Z,95346.40
2018-05-31T13:17:06.064Z,95341.48
2018-05-31T13:19:34.305Z,95348.23
2018-05-31T13:22:03.301Z,95353.22
2018-05-31T13:24:32.305Z,95352.76
2018-05-31T13:27:01.318Z,95348.73
2018-05-31T13:29:29.570Z,95348.99
2018-05-31T13:31:58.666Z,95347.94
2018-05-31T13:34:27.686Z,95348.65
2018-05-31T13:36:55.920Z,95341.81
2018-05-31T13:39:24.931Z,95340.20
2018-05-31T13:41:54.041Z,95343.73
2018-05-31T13:44:22.278Z,95337.44
2018-05-31T13:46:50.537Z,95336.36
2018-05-31T13:49:18.985Z,95332.11
2018-05-31T13:51:47.208Z,95328.39
2018-05-31T13:54:16.205Z,95325.62
2018-05-31T13:56:44.455Z,95321.94
2018-05-31T13:59:12.694Z,95320.05
2018-05-31T14:01:40.961Z,95319.10
2018-05-31T14:04:09.194Z,95322.13
2018-05-31T14:06:37.446Z,95317.21
2018-05-31T14:09:06.270Z,95312.92
2018-05-31T14:11:34.514Z,95317.98
2018-05-31T14:14:02.761Z,95312.16
2018-05-31T14:16:30.999Z,95322.08
2018-05-31T14:18:59.298Z,95320.62
2018-05-31T14:21:28.297Z,95317.93
2018-05-31T14:23:56.558Z,95325.38
2018-05-31T14:26:25.554Z,95331.11
2018-05-31T14:28:54.559Z,95330.89
2018-05-31T14:31:22.803Z,95327.64
2018-05-31T14:33:51.301Z,95327.13
2018-05-31T14:36:20.301Z,95329.08
2018-05-31T14:38:48.534Z,95327.99
2018-05-31T14:41:16.949Z,95322.34
2018-05-31T14:43:45.954Z,95322.84
2018-05-31T14:46:14.192Z,95316.03
2018-05-31T14:48:42.445Z,95311.59
2018-05-31T14:51:10.678Z,95317.20
2018-05-31T14:53:38.925Z,95313.27
2018-05-31T14:56:07.166Z,95319.80
2018-05-31T14:58:35.418Z,95325.73
2018-05-31T15:01:03.653Z,95320.11
2018-05-31T15:03:31.893Z,95315.16
2018-05-31T15:06:00.157Z,95316.10
2018-05-31T15:08:28.389Z,95313.73
2018-05-31T15:10:57.397Z,95316.58
2018-05-31T15:13:26.418Z,95311.06
2018-05-31T15:15:54.653Z,95310.73
2018-05-31T15:18:23.678Z,95300.91
2018-05-31T15:20:51.913Z,95295.17
2018-05-31T15:23:20.936Z,95292.77
2018-05-31T15:25:49.174Z,95292.16
2018-05-31T15:28:17.417Z,95275.02
2018-05-31T15:30:45.671Z,95271.38
2018-05-31T15:33:13.903Z,95262.21
2018-05-31T15:35:42.145Z,95269.73
2018-05-31T15:38:10.382Z,95282.31
2018-05-31T15:40:38.630Z,95287.71
2018-05-31T15:43:06.865Z,95287.16
2018-05-31T15:45:35.111Z,95290.02
2018-05-31T15:48:03.357Z,95276.42
2018-05-31T15:50:32.383Z,95280.51
2018-05-31T15:53:00.606Z,95286.91
2018-05-31T15:55:28.838Z,95296.86
2018-05-31T15:57:57.297Z,95308.67
2018-05-31T16:00:26.311Z,95309.66
2018-05-31T16:02:54.553Z,95307.22
2018-05-31T16:05:22.806Z,95296.89
2018-05-31T16:07:51.042Z,95284.83
2018-05-31T16:10:19.402Z,95276.41
2018-05-31T16:12:47.638Z,95268.59
2018-05-31T16:15:16.659Z,95273.91
2018-05-31T16:17:45.765Z,95288.44
2018-05-31T16:20:14.011Z,95298.37
2018-05-31T16:22:42.250Z,95306.20
2018-05-31T16:25:10.494Z,95307.83
2018-05-31T16:27:38.737Z,95315.34
2018-05-31T16:30:06.991Z,95319.48
2018-05-31T16:32:35.218Z,95315.92
2018-05-31T16:35:03.483Z,95310.50
2018-05-31T16:37:31.706Z,95307.51
2018-05-31T16:39:59.958Z,95298.78
2018-05-31T16:42:28.218Z,95299.64
2018-05-31T16:44:57.225Z,95302.69
2018-05-31T16:47:25.466Z,95313.84
2018-05-31T16:49:53.717Z,95314.09
2018-05-31T16:52:21.954Z,95331.55
2018-05-31T16:54:50.198Z,95333.41
2018-05-31T16:57:19.218Z,95338.34
2018-05-31T16:59:47.461Z,95348.53
2018-05-31T17:02:15.709Z,95352.50
2018-05-31T17:04:44.019Z,95356.89
2018-05-31T17:07:12.205Z,95365.63
2018-05-31T17:09:41.210Z,95374.40
2018-05-31T17:12:09.460Z,95371.36
2018-05-31T17:14:38.466Z,95360.39
2018-05-31T17:17:07.477Z,95376.38
2018-05-31T17:19:35.722Z,95374.30
2018-05-31T17:22:04.730Z,95390.34
2018-05-31T17:24:33.751Z,95412.95
2018-05-31T17:27:02.004Z,95429.89
2018-05-31T17:29:31.002Z,95441.20
2018-05-31T17:32:00.013Z,95446.56
2018-05-31T17:34:28.258Z,95465.00
2018-05-31T17:36:57.269Z,95477.33
2018-05-31T17:39:25.518Z,95487.94
2018-05-31T17:41:54.631Z,95487.70
2018-05-31T17:44:23.814Z,95491.89
2018-05-31T17:46:52.970Z,95488.45
2018-05-31T17:49:21.270Z,95480.70
2018-05-31T17:51:49.446Z,95486.45
2018-05-31T17:54:17.694Z,95476.24
2018-05-31T17:56:45.951Z,95474.70
2018-05-31T17:59:14.178Z,95483.28
2018-05-31T18:01:42.474Z,95475.51
2018-05-31T18:04:11.474Z,95483.38
2018-05-31T18:06:39.721Z,95488.83
2018-05-31T18:09:07.971Z,95502.54
2018-05-31T18:11:36.205Z,95509.11
2018-05-31T18:14:04.468Z,95519.66
2018-05-31T18:16:32.707Z,95540.78
2018-05-31T18:19:00.945Z,95529.78
2018-05-31T18:21:29.215Z,95528.07
2018-05-31T18:23:57.461Z,95510.39
2018-05-31T18:26:26.566Z,95492.80
2018-05-31T18:28:55.565Z,95481.12
2018-05-31T18:31:23.798Z,95464.05
2018-05-31T18:33:52.066Z,95461.11
2018-05-31T18:36:20.489Z,95458.80
2018-05-31T18:38:48.902Z,95441.48
2018-05-31T18:41:17.121Z,95442.66
2018-05-31T18:43:45.364Z,95430.91
2018-05-31T18:46:13.598Z,95430.09
2018-05-31T18:48:41.845Z,95420.48
2018-05-31T18:51:11.598Z,95419.30
2018-05-31T18:53:39.895Z,95420.23
2018-05-31T18:56:08.342Z,95421.50
2018-05-31T18:58:37.334Z,95411.28
2018-05-31T19:01:06.337Z,95411.56
2018-05-31T19:03:34.594Z,95410.33
2018-05-31T19:06:03.589Z,95404.73
2018-05-31T19:08:31.875Z,95401.30
2018-05-31T19:11:00.960Z,95396.70
2018-05-31T19:13:35.511Z,95399.48
2018-05-31T19:16:03.746Z,95395.81
2018-05-31T19:18:38.370Z,95411.33
2018-05-31T19:21:06.606Z,95421.16
2018-05-31T19:23:34.853Z,95438.59
2018-05-31T19:26:03.098Z,95454.72
2018-05-31T19:28:31.334Z,95452.81
2018-05-31T19:31:05.154Z,95451.05
2018-05-31T19:33:33.391Z,95452.09
2018-05-31T19:36:07.090Z,95451.08
2018-05-31T19:38:35.377Z,95448.84
2018-05-31T19:41:03.929Z,95450.13
2018-05-31T19:43:38.398Z,95457.88
2018-05-31T19:46:06.651Z,95451.96
2018-05-31T19:48:34.898Z,95450.06
2018-05-31T19:51:03.902Z,95449.01
2018-05-31T19:53:37.664Z,95450.69
2018-05-31T19:56:05.892Z,95448.30
2018-05-31T19:58:39.666Z,95448.45
2018-05-31T20:01:14.229Z,95444.59
2018-05-31T20:03:42.458Z,95436.84
2018-05-31T20:06:10.706Z,95433.70
2018-05-31T20:08:38.938Z,95422.14
2018-05-31T20:11:07.178Z,95414.00
2018-05-31T20:13:35.591Z,95420.80
2018-05-31T20:16:04.629Z,95421.50
2018-05-31T20:18:32.872Z,95416.80
2018-05-31T20:21:02.071Z,95418.08
2018-05-31T20:23:30.326Z,95420.13
2018-05-31T20:25:59.322Z,95442.10
2018-05-31T20:28:28.326Z,95452.56
2018-05-31T20:30:56.709Z,95433.19
2018-05-31T20:33:25.594Z,95419.81
2018-05-31T20:35:54.593Z,95420.12
2018-05-31T20:38:22.834Z,95422.95
2018-05-31T20:40:51.076Z,95463.45
2018-05-31T20:43:19.310Z,95464.42
2018-05-31T20:45:47.558Z,95446.47
2018-05-31T20:48:15.803Z,95469.30
2018-05-31T20:50:44.045Z,95476.17
2018-05-31T20:53:12.297Z,95481.13
2018-05-31T20:55:41.303Z,95484.72
2018-05-31T20:58:10.305Z,95495.18
2018-05-31T21:00:38.565Z,95497.20
2018-05-31T21:03:07.555Z,95508.34
2018-05-31T21:05:36.584Z,95505.00
2018-05-31T21:08:04.810Z,95508.27
2018-05-31T21:10:33.838Z,95530.53
2018-05-31T21:13:02.081Z,95541.57
2018-05-31T21:15:31.102Z,95557.06
2018-05-31T21:17:59.361Z,95568.30
2018-05-31T21:20:28.378Z,95592.27
2018-05-31T21:22:56.622Z,95591.16
2018-05-31T21:25:25.641Z,95603.67
2018-05-31T21:27:53.874Z,95600.58
2018-05-31T21:30:22.118Z,95586.45
2018-05-31T21:32:50.571Z,95575.98
2018-05-31T21:35:18.822Z,95577.67
2018-05-31T21:37:47.070Z,95590.44
2018-05-31T21:40:15.490Z,95593.31
2018-05-31T21:42:44.502Z,95594.61
2018-05-31T21:45:12.731Z,95594.92
2018-05-31T21:47:40.976Z,95587.81
2018-05-31T21:50:09.214Z,95588.36
2018-05-31T21:52:37.476Z,95588.67
2018-05-31T21:55:07.199Z,95586.19
2018-05-31T21:57:35.441Z,95586.69
2018-05-31T22:00:03.695Z,95583.86
2018-05-31T22:02:31.954Z,95570.06
2018-05-31T22:05:00.185Z,95563.02
2018-05-31T22:07:29.204Z,95573.41
2018-05-31T22:09:57.486Z,95575.50
2018-05-31T22:12:25.741Z,95575.49
2018-05-31T22:14:54.745Z,95567.30
2018-05-31T22:17:22.989Z,95557.39
2018-05-31T22:19:51.242Z,95555.89
2018-05-31T22:22:19.485Z,95554.12
2018-05-31T22:24:47.724Z,95553.80
2018-05-31T22:27:16.718Z,95543.97
2018-05-31T22:29:45.730Z,95532.72
2018-05-31T22:32:13.971Z,95529.30
2018-05-31T22:34:42.224Z,95529.45
2018-05-31T22:37:10.458Z,95525.59
2018-05-31T22:39:38.718Z,95526.45
2018-05-31T22:42:07.725Z,95534.05
2018-05-31T22:44:35.978Z,95534.87
2018-05-31T22:47:04.231Z,95538.37
2018-05-31T22:49:32.486Z,95537.56
2018-05-31T22:52:00.717Z,95539.45
2018-05-31T22:54:29.726Z,95540.42
2018-05-31T22:56:57.973Z,95551.09
2018-05-31T22:59:26.971Z,95556.45
2018-05-31T23:01:55.974Z,95551.27
2018-05-31T23:04:25.106Z,95546.42
2018-05-31T23:06:53.338Z,95545.00
2018-05-31T23:09:22.334Z,95543.17
2018-05-31T23:11:51.354Z,95555.13
2018-05-31T23:14:19.586Z,95556.27
2018-05-31T23:16:47.813Z,95555.20
2018-05-31T23:19:16.058Z,95559.47
2018-05-31T23:21:44.289Z,95558.11
2018-05-31T23:24:12.625Z,95555.88
2018-05-31T23:26:40.854Z,95555.47
2018-05-31T23:29:09.086Z,95556.03
2018-05-31T23:31:37.331Z,95555.87
2018-05-31T23:34:06.330Z,95562.23
2018-05-31T23:36:34.573Z,95568.38
2018-05-31T23:39:02.805Z,95579.78
2018-05-31T23:41:31.051Z,95577.66
2018-05-31T23:44:00.061Z,95587.48
2018-05-31T23:46:28.306Z,95588.81
2018-05-31T23:48:57.321Z,95592.55
2018-05-31T23:51:25.570Z,95602.33
2018-05-31T23:53:53.809Z,95603.00
2018-05-31T23:56:22.046Z,95610.98
2018-05-31T23:58:50.289Z,95615.84
